Time;durP1;ratioP1;P1;durP2;ratioP2;P2;SDS_P1;SDS_P2;PMS_P1;PMS_P2;Temp;Humidity;BMP_temperature;BMP_pressure;BME280_temperature;BME280_humidity;BME280_pressure;Samples;Min_cycle;Max_cycle;Signal;HPM_P1;HPM_P2
2022/10/13 00:01:08;;;;;;;;;;;;;;;7.39;100.00;98996.50;1729356;81;24935;-88
2022/10/13 00:03:37;;;;;;;;;;;;;;;7.38;100.00;98990.91;1720529;80;20173;-88
2022/10/13 00:06:06;;;;;;;;;;;;;;;7.40;100.00;98991.23;1696934;81;26089;-88
2022/10/13 00:08:31;;;;;;;;;;;;;;;7.39;100.00;98993.90;1697199;82;24463;-88
2022/10/13 00:10:59;;;;;;;;;;;;;;;7.41;100.00;98999.89;1696265;83;20235;-88
2022/10/13 00:13:27;;;;;;;;;;;;;;;7.41;100.00;98994.68;1682070;82;24901;-88
2022/10/13 00:15:53;;;;;;;;;;;;;;;7.24;100.00;98992.03;1676466;82;21952;-88
2022/10/13 00:18:19;;;;;;;;;;;;;;;7.11;100.00;98993.91;1678213;82;26275;-88
2022/10/13 00:20:46;;;;;;;;;;;;;;;7.02;100.00;98989.59;1675966;82;20858;-88
2022/10/13 00:23:12;;;;;;;;;;;;;;;7.05;100.00;98992.89;1684842;81;20323;-88
2022/10/13 00:25:42;;;;;;;;;;;;;;;7.12;100.00;98996.89;1685704;82;24899;-88
2022/10/13 00:28:09;;;;;;;;;;;;;;;7.07;100.00;98993.67;1694547;82;22093;-87
2022/10/13 00:30:35;;;;;;;;;;;;;;;7.11;100.00;98992.60;1716545;81;27022;-87
2022/10/13 00:33:01;;;;;;;;;;;;;;;7.11;100.00;98990.00;1719728;80;24313;-88
2022/10/13 00:35:27;;;;;;;;;;;;;;;7.04;100.00;98991.19;1716174;80;20308;-87
2022/10/13 00:37:53;;;;;;;;;;;;;;;7.00;100.00;98990.11;1734064;80;20275;-89
2022/10/13 00:40:19;;;;;;;;;;;;;;;7.07;100.00;98991.06;1714933;80;22089;-89
2022/10/13 00:42:45;;;;;;;;;;;;;;;7.12;100.00;98989.55;1719445;80;21214;-84
2022/10/13 00:45:18;;;;;;;;;;;;;;;6.98;100.00;98979.77;1726049;81;20307;-82
2022/10/13 00:47:46;;;;;;;;;;;;;;;6.86;100.00;98984.72;1725075;81;20223;-83
2022/10/13 00:50:16;;;;;;;;;;;;;;;6.74;100.00;98980.91;1713633;80;24808;-82
2022/10/13 00:52:43;;;;;;;;;;;;;;;6.70;100.00;98983.27;1718452;80;22154;-82
2022/10/13 00:55:11;;;;;;;;;;;;;;;6.72;100.00;98978.38;1714633;80;26019;-84
2022/10/13 00:57:39;;;;;;;;;;;;;;;6.79;100.00;98972.44;1719973;81;24467;-82
2022/10/13 01:00:10;;;;;;;;;;;;;;;6.79;100.00;98969.84;1685702;83;20340;-83
2022/10/13 01:02:35;;;;;;;;;;;;;;;6.83;100.00;98966.17;1680209;82;24824;-89
2022/10/13 01:05:02;;;;;;;;;;;;;;;6.85;100.00;98967.41;1693092;82;21991;-88
2022/10/13 01:07:28;;;;;;;;;;;;;;;6.79;100.00;98960.73;1694986;81;26749;-88
2022/10/13 01:09:54;;;;;;;;;;;;;;;6.94;100.00;98965.67;1646305;83;20273;-88
2022/10/13 01:12:28;;;;;;;;;;;;;;;7.03;100.00;98966.56;1689216;82;20231;-89
2022/10/13 01:14:59;;;;;;;;;;;;;;;7.00;100.00;98966.69;1691221;82;24818;-88
2022/10/13 01:17:43;;;;;;;;;;;;;;;7.05;100.00;98964.27;1694437;83;22030;-89
2022/10/13 01:20:11;;;;;;;;;;;;;;;7.13;100.00;98962.16;1681601;83;26008;-83
2022/10/13 01:22:59;;;;;;;;;;;;;;;7.21;100.00;98957.02;1683241;83;25106;-83
2022/10/13 01:25:32;;;;;;;;;;;;;;;7.23;100.00;98956.05;1695420;82;20294;-88
2022/10/13 01:28:06;;;;;;;;;;;;;;;7.21;100.00;98947.91;1675845;83;24869;-83
2022/10/13 01:30:34;;;;;;;;;;;;;;;6.98;100.00;98955.05;1657383;84;22842;-85
2022/10/13 01:33:18;;;;;;;;;;;;;;;6.95;100.00;98952.60;1657645;83;26020;-87
2022/10/13 01:35:50;;;;;;;;;;;;;;;7.02;100.00;98954.01;1664785;83;24458;-88
2022/10/13 01:38:21;;;;;;;;;;;;;;;6.98;100.00;98952.93;1692371;82;20399;-86
2022/10/13 01:40:52;;;;;;;;;;;;;;;6.98;100.00;98948.54;1683001;82;24821;-85
2022/10/13 01:43:19;;;;;;;;;;;;;;;6.85;100.00;98942.25;1685521;82;21987;-84
2022/10/13 01:45:47;;;;;;;;;;;;;;;6.68;100.00;98942.17;1681760;83;25533;-84
2022/10/13 01:48:15;;;;;;;;;;;;;;;6.52;100.00;98938.14;1676604;83;25509;-85
2022/10/13 01:50:41;;;;;;;;;;;;;;;6.43;100.00;98940.31;1685693;82;20265;-87
2022/10/13 01:56:08;;;;;;;;;;;;;;;6.00;100.00;98939.58;1678880;83;22025;-85
2022/10/13 01:58:35;;;;;;;;;;;;;;;5.93;100.00;98939.94;1657839;84;26040;-83
2022/10/13 02:01:06;;;;;;;;;;;;;;;5.94;100.00;98943.77;1672768;83;24520;-83
2022/10/13 02:03:40;;;;;;;;;;;;;;;6.11;100.00;98943.86;1647444;84;20229;-86
2022/10/13 02:09:03;;;;;;;;;;;;;;;6.37;100.00;98943.19;1646674;84;20160;-88
2022/10/13 02:11:29;;;;;;;;;;;;;;;6.52;100.00;98935.98;1624779;84;26875;-88
2022/10/13 02:14:02;;;;;;;;;;;;;;;6.60;100.00;98936.50;1667426;83;20277;-88
2022/10/13 02:16:32;;;;;;;;;;;;;;;6.67;100.00;98925.72;1695227;83;20228;-89
2022/10/13 02:18:59;;;;;;;;;;;;;;;6.53;100.00;98929.43;1722582;80;25611;-86
2022/10/13 02:21:25;;;;;;;;;;;;;;;6.41;100.00;98927.83;1717818;80;22007;-86
2022/10/13 02:23:51;;;;;;;;;;;;;;;6.34;100.00;98925.95;1729708;80;26809;-85
2022/10/13 02:26:17;;;;;;;;;;;;;;;6.37;100.00;98923.69;1721227;81;20263;-87
2022/10/13 02:28:43;;;;;;;;;;;;;;;6.30;100.00;98919.22;1724289;80;20603;-88
2022/10/13 02:31:09;;;;;;;;;;;;;;;6.15;100.00;98918.16;1714872;80;24764;-88
2022/10/13 02:33:37;;;;;;;;;;;;;;;5.98;100.00;98913.30;1715917;80;20265;-89
2022/10/13 02:36:03;;;;;;;;;;;;;;;5.86;100.00;98914.64;1722958;80;26940;-89
2022/10/13 02:38:29;;;;;;;;;;;;;;;5.92;100.00;98910.97;1712562;81;20466;-86
2022/10/13 02:40:55;;;;;;;;;;;;;;;6.07;100.00;98916.78;1718485;81;20670;-85
2022/10/13 02:43:21;;;;;;;;;;;;;;;6.18;100.00;98916.70;1710195;81;20312;-85
2022/10/13 02:45:56;;;;;;;;;;;;;;;6.24;100.00;98912.53;1717109;80;20302;-90
2022/10/13 02:48:30;;;;;;;;;;;;;;;6.32;100.00;98911.36;1718658;80;26132;-90
2022/10/13 02:50:56;;;;;;;;;;;;;;;6.40;100.00;98911.84;1719874;81;24546;-83
2022/10/13 02:53:22;;;;;;;;;;;;;;;6.44;100.00;98914.68;1716938;80;20389;-83
2022/10/13 02:55:51;;;;;;;;;;;;;;;6.37;100.00;98915.44;1720952;80;24728;-84
2022/10/13 02:58:17;;;;;;;;;;;;;;;6.27;100.00;98916.77;1726475;80;22066;-83
2022/10/13 03:00:43;;;;;;;;;;;;;;;6.20;100.00;98917.95;1726891;81;26127;-84
2022/10/13 03:03:10;;;;;;;;;;;;;;;6.26;100.00;98914.62;1715841;80;21582;-88
2022/10/13 03:05:36;;;;;;;;;;;;;;;6.19;100.00;98913.66;1720787;81;20257;-88
2022/10/13 03:08:17;;;;;;;;;;;;;;;6.23;100.00;98904.80;1727794;80;21012;-90
2022/10/13 03:10:46;;;;;;;;;;;;;;;6.35;100.00;98906.86;1728693;80;22024;-85
2022/10/13 03:13:11;;;;;;;;;;;;;;;6.43;100.00;98906.06;1725469;80;26205;-88
2022/10/13 03:15:37;;;;;;;;;;;;;;;6.48;100.00;98902.80;1725946;81;20323;-88
2022/10/13 03:18:03;;;;;;;;;;;;;;;6.49;100.00;98894.55;1711453;81;20370;-88
2022/10/13 03:20:29;;;;;;;;;;;;;;;6.48;100.00;98896.75;1725554;80;25441;-83
2022/10/13 03:23:05;;;;;;;;;;;;;;;6.38;100.00;98894.19;1677413;83;22126;-88
2022/10/13 03:25:32;;;;;;;;;;;;;;;6.36;100.00;98900.75;1677265;82;26159;-88
2022/10/13 03:27:58;;;;;;;;;;;;;;;6.38;100.00;98895.48;1687813;82;24013;-83
2022/10/13 03:30:25;;;;;;;;;;;;;;;6.40;100.00;98894.94;1685472;82;20318;-88
2022/10/13 03:32:51;;;;;;;;;;;;;;;6.42;100.00;98893.97;1666022;83;24754;-88
2022/10/13 03:35:17;;;;;;;;;;;;;;;6.41;100.00;98897.94;1689438;83;20262;-83
2022/10/13 03:37:42;;;;;;;;;;;;;;;6.39;100.00;98900.59;1657566;84;26790;-85
2022/10/13 03:40:09;;;;;;;;;;;;;;;6.37;100.00;98894.64;1681604;82;20815;-83
2022/10/13 03:42:35;;;;;;;;;;;;;;;6.38;100.00;98896.34;1692454;82;20615;-85
2022/10/13 03:45:02;;;;;;;;;;;;;;;6.16;100.00;98896.46;1687610;83;25349;-82
2022/10/13 03:47:31;;;;;;;;;;;;;;;5.92;100.00;98889.73;1672432;84;21983;-84
2022/10/13 03:49:57;;;;;;;;;;;;;;;5.78;100.00;98897.27;1673006;84;26141;-87
2022/10/13 03:52:26;;;;;;;;;;;;;;;5.70;100.00;98888.94;1688384;83;20259;-89
2022/10/13 03:54:52;;;;;;;;;;;;;;;5.69;100.00;98891.99;1691298;82;20245;-89
2022/10/13 03:57:18;;;;;;;;;;;;;;;5.59;100.00;98893.75;1693054;82;20261;-89
2022/10/13 03:59:44;;;;;;;;;;;;;;;5.52;100.00;98889.27;1686200;82;20406;-91
2022/10/13 04:02:12;;;;;;;;;;;;;;;5.59;100.00;98892.45;1700989;81;21051;-90
2022/10/13 04:04:39;;;;;;;;;;;;;;;5.76;100.00;98886.93;1677511;83;24640;-85
2022/10/13 04:07:06;;;;;;;;;;;;;;;5.94;100.00;98890.52;1692000;82;20386;-88
2022/10/13 04:09:32;;;;;;;;;;;;;;;5.91;100.00;98888.50;1692324;82;24826;-88
2022/10/13 04:12:04;;;;;;;;;;;;;;;5.81;100.00;98880.23;1688662;82;22079;-88
2022/10/13 04:14:31;;;;;;;;;;;;;;;5.68;100.00;98879.06;1730154;80;26789;-89
2022/10/13 04:16:57;;;;;;;;;;;;;;;5.63;100.00;98883.16;1728624;80;24455;-89
2022/10/13 04:19:23;;;;;;;;;;;;;;;5.76;100.00;98886.09;1733420;80;20839;-84
2022/10/13 04:21:50;;;;;;;;;;;;;;;5.88;100.00;98884.30;1725429;80;24722;-84
2022/10/13 04:24:16;;;;;;;;;;;;;;;5.92;100.00;98883.24;1697684;82;22648;-87
2022/10/13 04:26:43;;;;;;;;;;;;;;;5.77;100.00;98883.88;1674205;82;26016;-85
2022/10/13 04:29:10;;;;;;;;;;;;;;;5.65;100.00;98887.00;1695534;82;25216;-86
2022/10/13 04:31:41;;;;;;;;;;;;;;;5.61;100.00;98888.05;1698021;80;20483;-88
2022/10/13 04:34:07;;;;;;;;;;;;;;;5.70;100.00;98883.75;1715937;80;25499;-87
2022/10/13 04:36:33;;;;;;;;;;;;;;;5.69;100.00;98879.46;1728996;81;20260;-84
2022/10/13 04:38:58;;;;;;;;;;;;;;;5.60;100.00;98879.86;1713829;81;21159;-84
2022/10/13 04:41:24;;;;;;;;;;;;;;;5.54;100.00;98873.18;1719802;81;20258;-84
2022/10/13 04:43:52;;;;;;;;;;;;;;;5.59;100.00;98878.17;1714013;80;20231;-86
2022/10/13 04:46:20;;;;;;;;;;;;;;;5.76;100.00;98882.19;1735239;80;24836;-84
2022/10/13 04:48:46;;;;;;;;;;;;;;;5.93;100.00;98883.63;1676272;82;21967;-87
2022/10/13 04:51:13;;;;;;;;;;;;;;;6.07;100.00;98883.86;1675116;83;20994;-84
2022/10/13 04:53:45;;;;;;;;;;;;;;;6.18;100.00;98882.92;1631253;84;20419;-90
2022/10/13 04:56:13;;;;;;;;;;;;;;;6.07;100.00;98878.66;1665567;83;20242;-88
2022/10/13 04:58:43;;;;;;;;;;;;;;;5.89;100.00;98877.71;1673791;82;24808;-86
2022/10/13 05:01:14;;;;;;;;;;;;;;;5.70;100.00;98877.26;1667598;83;21980;-88
2022/10/13 05:03:53;;;;;;;;;;;;;;;5.56;100.00;98873.13;1698979;82;26204;-91
2022/10/13 05:06:20;;;;;;;;;;;;;;;5.59;100.00;98876.88;1677136;83;25307;-88
2022/10/13 05:08:46;;;;;;;;;;;;;;;5.81;100.00;98884.12;1667492;82;21067;-88
2022/10/13 05:11:12;;;;;;;;;;;;;;;5.89;100.00;98874.30;1677094;82;20733;-88
2022/10/13 05:13:40;;;;;;;;;;;;;;;5.92;100.00;98880.64;1667864;83;20237;-84
2022/10/13 05:16:07;;;;;;;;;;;;;;;5.98;100.00;98877.78;1674330;82;26297;-85
2022/10/13 05:18:34;;;;;;;;;;;;;;;5.94;100.00;98881.44;1681822;82;24199;-86
2022/10/13 05:21:10;;;;;;;;;;;;;;;6.00;100.00;98881.62;1658231;83;20305;-88
2022/10/13 05:23:33;;;;;;;;;;;;;;;5.97;100.00;98881.28;1676416;82;24788;-86
2022/10/13 05:26:04;;;;;;;;;;;;;;;5.93;100.00;98880.19;1679037;82;20287;-84
2022/10/13 05:28:29;;;;;;;;;;;;;;;5.80;100.00;98872.90;1674043;82;26172;-89
2022/10/13 05:30:55;;;;;;;;;;;;;;;5.79;100.00;98872.95;1693197;82;20934;-86
2022/10/13 05:33:26;;;;;;;;;;;;;;;5.69;100.00;98875.11;1694945;82;20439;-84
2022/10/13 05:35:52;;;;;;;;;;;;;;;5.67;100.00;98871.77;1681724;82;24819;-84
2022/10/13 05:38:18;;;;;;;;;;;;;;;5.77;100.00;98879.98;1675659;83;20735;-86
2022/10/13 05:40:44;;;;;;;;;;;;;;;5.83;100.00;98879.73;1696502;82;25991;-89
2022/10/13 05:43:13;;;;;;;;;;;;;;;5.81;100.00;98878.94;1675391;83;20235;-89
2022/10/13 05:45:39;;;;;;;;;;;;;;;5.87;100.00;98878.25;1715757;81;20328;-90
2022/10/13 05:48:10;;;;;;;;;;;;;;;5.94;100.00;98886.63;1691956;82;24839;-90
2022/10/13 05:50:40;;;;;;;;;;;;;;;5.91;100.00;98885.89;1690254;82;23050;-90
2022/10/13 05:53:06;;;;;;;;;;;;;;;5.69;100.00;98886.80;1692501;82;26617;-86
2022/10/13 05:55:32;;;;;;;;;;;;;;;5.58;100.00;98897.24;1693505;82;25387;-84
2022/10/13 05:58:05;;;;;;;;;;;;;;;5.45;100.00;98896.94;1672857;83;20275;-88
2022/10/13 06:00:37;;;;;;;;;;;;;;;5.42;100.00;98901.79;1710700;80;25562;-84
2022/10/13 06:03:05;;;;;;;;;;;;;;;5.52;100.00;98903.98;1716071;82;22001;-84
2022/10/13 06:05:31;;;;;;;;;;;;;;;5.66;100.00;98898.63;1721110;81;26917;-88
2022/10/13 06:07:57;;;;;;;;;;;;;;;5.85;100.00;98896.91;1719437;80;24452;-88
2022/10/13 06:10:24;;;;;;;;;;;;;;;5.97;100.00;98906.41;1680497;83;20275;-88
2022/10/13 06:12:50;;;;;;;;;;;;;;;6.10;100.00;98908.42;1663430;83;24826;-86
2022/10/13 06:15:18;;;;;;;;;;;;;;;6.23;100.00;98903.50;1696852;83;20833;-89
2022/10/13 06:17:44;;;;;;;;;;;;;;;6.34;100.00;98906.91;1670553;84;26190;-86
2022/10/13 06:20:19;;;;;;;;;;;;;;;6.42;100.00;98910.03;1668300;83;24564;-88
2022/10/13 06:22:47;;;;;;;;;;;;;;;6.49;100.00;98904.95;1678203;83;20186;-90
2022/10/13 06:25:13;;;;;;;;;;;;;;;6.37;100.00;98905.04;1674899;83;24927;-90
2022/10/13 06:27:39;;;;;;;;;;;;;;;6.24;100.00;98906.04;1722029;82;20217;-90
2022/10/13 06:30:07;;;;;;;;;;;;;;;6.19;100.00;98905.86;1728272;80;21017;-85
2022/10/13 06:32:38;;;;;;;;;;;;;;;6.07;100.00;98902.50;1717588;81;24471;-89
2022/10/13 06:35:07;;;;;;;;;;;;;;;5.95;100.00;98904.33;1721491;80;20272;-85
2022/10/13 06:37:35;;;;;;;;;;;;;;;5.88;100.00;98908.97;1701389;82;20918;-90
2022/10/13 06:40:02;;;;;;;;;;;;;;;5.84;100.00;98905.61;1722758;80;22064;-90
2022/10/13 06:42:30;;;;;;;;;;;;;;;5.88;100.00;98907.67;1722472;80;26163;-88
2022/10/13 06:44:56;;;;;;;;;;;;;;;5.97;100.00;98905.11;1724873;80;25318;-85
2022/10/13 06:47:23;;;;;;;;;;;;;;;6.07;100.00;98902.05;1728684;80;20905;-82
2022/10/13 06:49:49;;;;;;;;;;;;;;;6.08;100.00;98898.99;1723926;80;24867;-83
2022/10/13 06:52:15;;;;;;;;;;;;;;;6.13;100.00;98903.53;1720330;81;20418;-88
2022/10/13 06:54:41;;;;;;;;;;;;;;;6.07;100.00;98896.84;1722520;80;26079;-84
2022/10/13 06:57:07;;;;;;;;;;;;;;;6.03;100.00;98894.45;1716952;80;20275;-84
2022/10/13 06:59:33;;;;;;;;;;;;;;;6.00;100.00;98897.20;1706987;80;20815;-83
2022/10/13 07:01:59;;;;;;;;;;;;;;;6.02;100.00;98891.47;1683481;83;24909;-85
2022/10/13 07:04:26;;;;;;;;;;;;;;;6.04;100.00;98888.36;1670911;83;20247;-87
2022/10/13 07:06:52;;;;;;;;;;;;;;;6.07;100.00;98886.45;1666567;84;26117;-88
2022/10/13 07:09:19;;;;;;;;;;;;;;;6.15;100.00;98884.38;1683580;82;20269;-88
2022/10/13 07:11:45;;;;;;;;;;;;;;;6.29;100.00;98885.03;1690151;82;20312;-87
2022/10/13 07:14:12;;;;;;;;;;;;;;;6.44;100.00;98883.48;1645862;84;25019;-87
2022/10/13 07:16:38;;;;;;;;;;;;;;;6.70;100.00;98883.98;1655836;84;22082;-88
2022/10/13 07:19:03;;;;;;;;;;;;;;;6.95;100.00;98882.80;1646463;83;21081;-83
2022/10/13 07:21:29;;;;;;;;;;;;;;;7.17;100.00;98879.55;1678508;82;20264;-83
2022/10/13 07:23:55;;;;;;;;;;;;;;;7.36;100.00;98878.20;1676684;81;20293;-83
2022/10/13 07:26:21;;;;;;;;;;;;;;;7.52;100.00;98873.91;1679204;83;20500;-83
2022/10/13 07:28:47;;;;;;;;;;;;;;;7.55;100.00;98865.47;1683083;82;20247;-84
2022/10/13 07:31:14;;;;;;;;;;;;;;;7.58;100.00;98867.91;1685373;81;21186;-84
2022/10/13 07:33:41;;;;;;;;;;;;;;;7.48;100.00;98862.78;1685585;83;24551;-88
2022/10/13 07:36:08;;;;;;;;;;;;;;;7.44;100.00;98867.77;1662336;84;20193;-88
2022/10/13 07:38:33;;;;;;;;;;;;;;;7.40;100.00;98867.55;1684029;82;25811;-88
2022/10/13 07:41:06;;;;;;;;;;;;;;;7.36;100.00;98858.22;1677392;83;20844;-89
2022/10/13 07:43:34;;;;;;;;;;;;;;;7.38;100.00;98856.36;1677939;81;26056;-83
2022/10/13 07:46:03;;;;;;;;;;;;;;;7.44;100.00;98851.30;1688191;82;24491;-85
2022/10/13 07:48:30;;;;;;;;;;;;;;;7.48;100.00;98847.61;1686665;83;20273;-85
2022/10/13 07:50:55;;;;;;;;;;;;;;;7.52;100.00;98850.02;1679283;82;24753;-85
2022/10/13 07:53:26;;;;;;;;;;;;;;;7.60;100.00;98853.51;1697670;82;20249;-83
2022/10/13 07:55:49;;;;;;;;;;;;;;;7.75;100.00;98850.56;1668509;84;26046;-84
2022/10/13 07:58:15;;;;;;;;;;;;;;;7.91;100.00;98842.33;1670462;83;24476;-84
2022/10/13 08:00:41;;;;;;;;;;;;;;;8.00;100.00;98834.05;1686313;82;20763;-83
2022/10/13 08:03:07;;;;;;;;;;;;;;;8.06;100.00;98838.94;1679799;82;20699;-83
2022/10/13 08:05:33;;;;;;;;;;;;;;;8.13;100.00;98839.46;1671694;82;20228;-83
2022/10/13 08:07:58;;;;;;;;;;;;;;;8.26;100.00;98843.92;1679614;82;21771;-84
2022/10/13 08:10:24;;;;;;;;;;;;;;;8.42;100.00;98842.66;1673961;82;20334;-88
2022/10/13 08:12:50;;;;;;;;;;;;;;;8.51;100.00;98838.23;1681467;83;20330;-88
2022/10/13 08:15:17;;;;;;;;;;;;;;;8.63;100.00;98837.56;1689819;82;20498;-85
2022/10/13 08:17:43;;;;;;;;;;;;;;;8.83;100.00;98836.92;1698322;82;22027;-85
2022/10/13 08:20:09;;;;;;;;;;;;;;;9.03;100.00;98827.03;1694715;81;21808;-89
2022/10/13 08:22:35;;;;;;;;;;;;;;;9.18;100.00;98826.14;1687802;81;24519;-85
2022/10/13 08:25:01;;;;;;;;;;;;;;;9.32;100.00;98824.51;1684151;83;20781;-85
2022/10/13 08:27:28;;;;;;;;;;;;;;;9.37;100.00;98824.62;1676465;84;24797;-85
2022/10/13 08:30:01;;;;;;;;;;;;;;;9.43;100.00;98818.19;1686692;81;22668;-83
2022/10/13 08:32:28;;;;;;;;;;;;;;;9.57;100.00;98822.13;1693555;83;26290;-85
2022/10/13 08:34:57;;;;;;;;;;;;;;;9.69;100.00;98820.55;1697412;83;20304;-90
2022/10/13 08:37:23;;;;;;;;;;;;;;;9.85;100.00;98820.84;1715064;82;20679;-90
2022/10/13 08:39:48;;;;;;;;;;;;;;;10.00;100.00;98819.91;1727515;81;20510;-84
2022/10/13 08:42:17;;;;;;;;;;;;;;;10.06;100.00;98820.84;1721633;80;20296;-84
2022/10/13 08:44:45;;;;;;;;;;;;;;;10.08;100.00;98816.83;1719465;81;27023;-90
2022/10/13 08:47:20;;;;;;;;;;;;;;;10.09;100.00;98814.59;1719622;78;24453;-90
2022/10/13 08:49:50;;;;;;;;;;;;;;;10.18;100.00;98819.74;1713230;81;20281;-90
2022/10/13 08:52:23;;;;;;;;;;;;;;;10.28;100.00;98813.84;1725785;81;25028;-90
2022/10/13 08:54:49;;;;;;;;;;;;;;;10.37;100.00;98815.02;1716371;81;22000;-90
2022/10/13 08:57:16;;;;;;;;;;;;;;;10.44;100.00;98817.64;1714136;82;26011;-90
2022/10/13 08:59:43;;;;;;;;;;;;;;;10.48;100.00;98810.80;1715276;82;24473;-89
2022/10/13 09:02:19;;;;;;;;;;;;;;;10.58;100.00;98807.62;1724269;80;20258;-90
2022/10/13 09:05:03;;;;;;;;;;;;;;;10.72;100.00;98799.70;1737940;80;24826;-90
2022/10/13 09:07:42;;;;;;;;;;;;;;;10.78;100.00;98804.08;1724677;80;22122;-90
2022/10/13 09:13:08;;;;;;;;;;;;;;;11.07;100.00;98807.89;1727672;80;24428;-88
2022/10/13 09:15:44;;;;;;;;;;;;;;;11.20;100.00;98806.97;1723957;81;20242;-89
2022/10/13 09:21:23;;;;;;;;;;;;;;;11.34;100.00;98808.69;1718125;80;20229;-88
2022/10/13 09:23:50;;;;;;;;;;;;;;;11.39;100.00;98805.75;1719219;81;26017;-86
2022/10/13 09:26:23;;;;;;;;;;;;;;;11.45;100.00;98804.03;1718123;80;24638;-85
2022/10/13 09:28:50;;;;;;;;;;;;;;;11.51;100.00;98804.94;1721009;81;20291;-85
2022/10/13 09:31:29;;;;;;;;;;;;;;;11.58;100.00;98807.48;1734005;80;24785;-85
2022/10/13 09:34:00;;;;;;;;;;;;;;;11.73;100.00;98799.44;1707672;81;22128;-85
2022/10/13 09:36:30;;;;;;;;;;;;;;;11.86;100.00;98799.91;1711925;82;21107;-85
2022/10/13 09:39:07;;;;;;;;;;;;;;;11.97;100.00;98798.23;1716808;81;24574;-85
2022/10/13 09:41:34;;;;;;;;;;;;;;;12.05;100.00;98790.67;1716964;80;20310;-84
2022/10/13 09:44:04;;;;;;;;;;;;;;;12.17;100.00;98794.19;1719758;80;25662;-84
2022/10/13 09:46:32;;;;;;;;;;;;;;;12.35;100.00;98790.75;1718072;80;22099;-86
2022/10/13 09:48:59;;;;;;;;;;;;;;;12.43;100.00;98791.05;1722287;80;26186;-85
2022/10/13 09:51:43;;;;;;;;;;;;;;;12.43;100.00;98791.05;1719699;80;24580;-89
2022/10/13 09:54:31;;;;;;;;;;;;;;;12.48;100.00;98787.63;1672484;83;20346;-86
2022/10/13 09:56:59;;;;;;;;;;;;;;;12.51;100.00;98784.77;1660817;82;24974;-85
2022/10/13 09:59:32;;;;;;;;;;;;;;;12.57;100.00;98785.63;1683388;83;22760;-86
2022/10/13 10:02:00;;;;;;;;;;;;;;;12.62;100.00;98778.73;1686442;83;26083;-86
2022/10/13 10:04:32;;;;;;;;;;;;;;;12.75;100.00;98778.22;1664407;84;24303;-85
2022/10/13 10:07:28;;;;;;;;;;;;;;;12.90;100.00;98775.30;1674388;83;20385;-89
2022/10/13 10:09:56;;;;;;;;;;;;;;;13.07;100.00;98767.95;1707150;82;24957;-88
2022/10/13 10:12:24;;;;;;;;;;;;;;;13.23;100.00;98772.45;1717647;80;22112;-88
2022/10/13 10:14:49;;;;;;;;;;;;;;;13.42;100.00;98771.41;1713359;81;26052;-88
2022/10/13 10:17:34;;;;;;;;;;;;;;;13.59;100.00;98764.86;1716205;80;20257;-88
2022/10/13 10:20:08;;;;;;;;;;;;;;;13.73;100.00;98762.87;1708693;81;20242;-85
2022/10/13 10:22:52;;;;;;;;;;;;;;;13.91;100.00;98755.82;1711320;80;24846;-86
2022/10/13 10:25:21;;;;;;;;;;;;;;;14.08;100.00;98757.46;1683621;82;21996;-83
2022/10/13 10:27:51;;;;;;;;;;;;;;;14.13;100.00;98753.98;1660421;83;26656;-83
2022/10/13 10:30:18;;;;;;;;;;;;;;;14.18;100.00;98751.02;1694759;82;24447;-84
2022/10/13 10:32:58;;;;;;;;;;;;;;;14.27;100.00;98750.75;1683783;82;20227;-88
2022/10/13 10:35:43;;;;;;;;;;;;;;;14.40;100.00;98746.22;1687625;82;24999;-86
2022/10/13 10:38:28;;;;;;;;;;;;;;;14.50;100.00;98745.34;1686487;82;22094;-84
2022/10/13 10:41:06;;;;;;;;;;;;;;;14.55;100.00;98743.66;1724802;80;26175;-89
2022/10/13 10:43:46;;;;;;;;;;;;;;;14.56;100.00;98742.70;1728190;81;24570;-88
2022/10/13 10:46:17;;;;;;;;;;;;;;;14.56;100.00;98741.38;1729134;80;20163;-89
2022/10/13 10:48:45;;;;;;;;;;;;;;;14.59;100.00;98739.33;1693435;82;24781;-88
2022/10/13 10:51:13;;;;;;;;;;;;;;;14.62;100.00;98733.80;1685698;82;20487;-90
2022/10/13 10:53:40;;;;;;;;;;;;;;;14.67;100.00;98729.97;1691223;81;26132;-90
2022/10/13 10:56:16;;;;;;;;;;;;;;;14.81;100.00;98721.76;1694951;83;24499;-89
2022/10/13 10:58:50;;;;;;;;;;;;;;;14.84;100.00;98722.81;1685950;82;20347;-84
2022/10/13 11:01:20;;;;;;;;;;;;;;;14.85;100.00;98716.58;1663282;83;24936;-84
2022/10/13 11:03:54;;;;;;;;;;;;;;;14.87;100.00;98718.14;1687991;82;22114;-89
2022/10/13 11:06:29;;;;;;;;;;;;;;;14.97;100.00;98714.25;1696424;83;21419;-87
2022/10/13 11:08:57;;;;;;;;;;;;;;;14.98;100.00;98718.09;1695144;83;24525;-88
2022/10/13 11:11:25;;;;;;;;;;;;;;;15.01;100.00;98709.08;1689039;83;20189;-86
2022/10/13 11:13:54;;;;;;;;;;;;;;;15.01;100.00;98709.91;1631867;84;20700;-84
2022/10/13 11:16:25;;;;;;;;;;;;;;;15.16;100.00;98710.45;1668557;83;22023;-87
2022/10/13 11:18:58;;;;;;;;;;;;;;;15.31;100.00;98701.72;1662376;83;26085;-89
2022/10/13 11:21:24;;;;;;;;;;;;;;;15.50;100.00;98702.64;1680654;82;24633;-88
2022/10/13 11:23:55;;;;;;;;;;;;;;;15.49;100.00;98698.33;1697272;82;20250;-88
2022/10/13 11:26:26;;;;;;;;;;;;;;;15.53;100.00;98706.03;1685728;82;24893;-89
2022/10/13 11:28:52;;;;;;;;;;;;;;;15.62;100.00;98706.55;1689932;82;22732;-88
2022/10/13 11:31:47;;;;;;;;;;;;;;;15.70;100.00;98700.14;1665067;83;21357;-89
2022/10/13 11:34:29;;;;;;;;;;;;;;;15.67;100.00;98693.80;1719565;80;25196;-89
2022/10/13 11:36:59;;;;;;;;;;;;;;;15.79;100.00;98701.97;1722274;80;20366;-89
2022/10/13 11:39:27;;;;;;;;;;;;;;;15.94;100.00;98696.67;1724045;80;24849;-89
2022/10/13 11:42:00;;;;;;;;;;;;;;;16.04;100.00;98687.48;1716939;80;22031;-89
2022/10/13 11:44:28;;;;;;;;;;;;;;;16.15;100.00;98691.30;1722045;80;26833;-88
2022/10/13 11:46:55;;;;;;;;;;;;;;;16.22;100.00;98683.20;1721045;82;24645;-89
2022/10/13 11:49:39;;;;;;;;;;;;;;;16.19;100.00;98681.68;1722150;80;20378;-89
2022/10/13 11:52:12;;;;;;;;;;;;;;;16.24;100.00;98682.10;1717385;80;24889;-87
2022/10/13 11:54:40;;;;;;;;;;;;;;;16.32;100.00;98684.03;1715971;82;22112;-87
2022/10/13 11:57:08;;;;;;;;;;;;;;;16.39;100.00;98677.73;1733932;80;26202;-87
2022/10/13 11:59:40;;;;;;;;;;;;;;;16.41;100.00;98678.44;1713220;80;24471;-89
2022/10/13 12:02:07;;;;;;;;;;;;;;;16.43;100.00;98675.16;1720841;81;21445;-87
2022/10/13 12:04:33;;;;;;;;;;;;;;;16.45;100.00;98666.13;1718826;80;25012;-87
2022/10/13 12:07:02;;;;;;;;;;;;;;;16.45;100.00;98666.13;1668221;83;22812;-87
2022/10/13 12:09:30;;;;;;;;;;;;;;;16.48;100.00;98662.36;1675089;84;26014;-87
2022/10/13 12:11:58;;;;;;;;;;;;;;;16.58;100.00;98664.03;1667104;82;24468;-87
2022/10/13 12:14:28;;;;;;;;;;;;;;;16.62;100.00;98662.00;1687762;82;20650;-88
2022/10/13 12:16:56;;;;;;;;;;;;;;;16.73;100.00;98660.53;1680581;83;24787;-88
2022/10/13 12:19:26;;;;;;;;;;;;;;;16.82;100.00;98658.36;1670866;83;23025;-88
2022/10/13 12:21:54;;;;;;;;;;;;;;;16.94;100.00;98658.56;1683176;82;25497;-87
2022/10/13 12:24:40;;;;;;;;;;;;;;;16.99;100.00;98657.64;1675101;83;25365;-88
2022/10/13 12:27:16;;;;;;;;;;;;;;;17.04;100.00;98660.70;1671876;83;20331;-89
2022/10/13 12:29:42;;;;;;;;;;;;;;;17.12;100.00;98661.31;1669855;83;25789;-87
2022/10/13 12:32:21;;;;;;;;;;;;;;;17.18;100.00;98653.30;1663225;85;20177;-89
2022/10/13 12:34:47;;;;;;;;;;;;;;;17.17;100.00;98649.81;1678730;83;26008;-88
2022/10/13 12:37:27;;;;;;;;;;;;;;;17.18;100.00;98645.37;1692917;82;20333;-87
2022/10/13 12:39:54;;;;;;;;;;;;;;;17.26;100.00;98644.14;1687866;83;20158;-88
2022/10/13 12:42:32;;;;;;;;;;;;;;;17.34;100.00;98641.63;1665752;84;24697;-88
2022/10/13 12:45:01;;;;;;;;;;;;;;;17.35;100.00;98634.01;1693240;82;22140;-89
2022/10/13 12:47:38;;;;;;;;;;;;;;;17.32;100.00;98640.44;1670269;83;26040;-88
2022/10/13 12:50:22;;;;;;;;;;;;;;;17.26;100.00;98631.75;1665532;83;24543;-88
2022/10/13 12:52:53;;;;;;;;;;;;;;;17.15;100.00;98626.64;1688403;82;20334;-88
2022/10/13 12:55:20;;;;;;;;;;;;;;;17.11;100.00;98634.52;1692403;83;25533;-88
2022/10/13 12:57:48;;;;;;;;;;;;;;;17.17;100.00;98629.15;1658582;83;22248;-84
2022/10/13 13:00:25;;;;;;;;;;;;;;;17.20;100.00;98627.03;1692454;82;26298;-84
2022/10/13 13:02:57;;;;;;;;;;;;;;;17.24;100.00;98623.64;1657088;84;25337;-89
2022/10/13 13:05:36;;;;;;;;;;;;;;;17.32;100.00;98624.56;1722626;81;20497;-84